Time;durP1;ratioP1;P1;durP2;ratioP2;P2;SDS_P1;SDS_P2;PMS_P1;PMS_P2;Temp;Humidity;BMP_temperature;BMP_pressure;BME280_temperature;BME280_humidity;BME280_pressure;Samples;Min_cycle;Max_cycle;Signal;HPM_P1;HPM_P2
2023/03/19 00:02:03;;;;;;;5.53;3.20;;;10.90;99.90;;;9.95;100.00;97037.41;5053275;28;20484;-72
2023/03/19 00:04:29;;;;;;;6.75;3.50;;;10.90;99.90;;;9.99;100.00;97043.00;5053378;28;20520;-72
2023/03/19 00:06:55;;;;;;;4.82;3.15;;;10.90;99.90;;;9.95;100.00;97040.03;5053201;28;20488;-73
2023/03/19 00:09:21;;;;;;;9.17;3.20;;;10.90;99.90;;;9.99;100.00;97045.63;5053242;28;20794;-73
2023/03/19 00:11:48;;;;;;;7.40;2.90;;;10.90;99.90;;;10.00;100.00;97041.91;5052929;28;20397;-72
2023/03/19 00:14:16;;;;;;;4.78;3.20;;;10.90;99.90;;;10.02;100.00;97037.97;5053072;28;21007;-72
2023/03/19 00:16:42;;;;;;;9.27;3.20;;;10.90;99.90;;;10.05;100.00;97040.13;5053097;28;20396;-73
2023/03/19 00:19:08;;;;;;;7.30;3.03;;;10.90;99.90;;;10.07;100.00;97034.56;5053095;28;20460;-74
2023/03/19 00:21:35;;;;;;;6.25;2.63;;;11.00;99.90;;;10.08;100.00;97036.16;5034881;28;20406;-73
2023/03/19 00:24:01;;;;;;;4.38;2.63;;;11.00;99.90;;;10.11;100.00;97035.66;5035264;28;20397;-72
2023/03/19 00:26:29;;;;;;;5.50;2.67;;;11.00;99.90;;;10.14;100.00;97039.63;5052840;28;20435;-73
2023/03/19 00:28:57;;;;;;;5.45;2.90;;;11.10;99.90;;;10.15;100.00;97042.00;5052940;28;20970;-72
2023/03/19 00:31:24;;;;;;;6.95;2.92;;;11.10;99.90;;;10.10;100.00;97036.69;5052626;28;20421;-73
2023/03/19 00:33:50;;;;;;;12.23;3.22;;;11.00;99.90;;;10.05;100.00;97041.97;5034824;28;20466;-72
2023/03/19 00:36:17;;;;;;;9.18;3.25;;;11.00;99.90;;;10.01;100.00;97040.88;5052478;28;20407;-73
2023/03/19 00:38:43;;;;;;;6.22;3.00;;;10.90;99.90;;;9.98;100.00;97044.03;5052762;28;20404;-73
2023/03/19 00:41:10;;;;;;;8.05;3.38;;;10.90;99.90;;;9.95;100.00;97044.53;5052652;28;20410;-73
2023/03/19 00:43:37;;;;;;;11.15;3.30;;;10.90;99.90;;;9.93;100.00;97047.44;5052490;28;20404;-73
2023/03/19 00:46:05;;;;;;;9.57;3.22;;;10.80;99.90;;;9.88;100.00;97049.25;5052494;28;20398;-73
2023/03/19 00:48:31;;;;;;;8.48;3.25;;;10.70;99.90;;;9.87;100.00;97045.81;5052249;28;20847;-73
2023/03/19 00:51:02;;;;;;;15.18;4.00;;;10.80;99.90;;;9.91;100.00;97040.81;5051737;28;20433;-73
2023/03/19 00:53:28;;;;;;;5.20;3.00;;;10.80;99.90;;;9.95;100.00;97047.19;5052313;28;20452;-72
2023/03/19 00:55:54;;;;;;;8.03;3.10;;;10.90;99.90;;;9.97;100.00;97051.16;5052321;28;20867;-73
2023/03/19 00:58:20;;;;;;;7.72;3.13;;;10.90;99.90;;;10.00;100.00;97048.00;5052343;28;20419;-73
2023/03/19 01:00:46;;;;;;;5.72;2.92;;;10.90;99.90;;;10.03;100.00;97046.69;5052438;28;20814;-73
2023/03/19 01:03:13;;;;;;;5.60;3.08;;;11.00;99.90;;;10.07;100.00;97053.09;5052155;28;20405;-73
2023/03/19 01:05:40;;;;;;;6.45;3.00;;;11.00;99.90;;;10.12;100.00;97049.66;5052104;28;20393;-73
2023/03/19 01:08:06;;;;;;;7.47;3.40;;;11.00;99.90;;;10.09;100.00;97053.59;5052193;28;20454;-72
2023/03/19 01:10:33;;;;;;;12.50;3.33;;;10.90;99.90;;;10.07;100.00;97050.44;5052137;28;20484;-73
2023/03/19 01:12:59;;;;;;;7.05;3.22;;;10.90;99.90;;;10.07;100.00;97053.09;5051827;28;20758;-73
2023/03/19 01:15:25;;;;;;;8.55;2.97;;;11.00;99.90;;;10.10;100.00;97058.66;5052004;28;20508;-72
2023/03/19 01:17:51;;;;;;;7.28;3.28;;;11.00;99.90;;;10.17;100.00;97061.09;5051970;28;20417;-73
2023/03/19 01:20:19;;;;;;;5.97;2.60;;;11.10;99.90;;;10.23;100.00;97070.66;5051866;28;20488;-73
2023/03/19 01:22:45;;;;;;;4.75;2.88;;;11.10;99.90;;;10.29;100.00;97077.59;5051771;28;20484;-72
2023/03/19 01:25:12;;;;;;;8.35;3.22;;;11.20;99.90;;;10.32;100.00;97076.25;5051868;28;20883;-73
2023/03/19 01:27:38;;;;;;;4.78;2.67;;;11.20;99.90;;;10.35;100.00;97081.03;5051707;28;20514;-73
2023/03/19 01:30:06;;;;;;;7.05;2.85;;;11.20;99.90;;;10.35;100.00;97075.75;5051788;28;20393;-73
2023/03/19 01:32:32;;;;;;;4.90;2.92;;;11.20;99.90;;;10.36;100.00;97078.16;5051524;28;20402;-73
2023/03/19 01:34:58;;;;;;;9.15;2.70;;;11.30;99.90;;;10.38;100.00;97085.81;5051459;28;20413;-73
2023/03/19 01:37:26;;;;;;;7.47;3.13;;;11.20;99.90;;;10.34;100.00;97096.13;5051449;28;20483;-73
2023/03/19 01:39:52;;;;;;;7.45;3.53;;;11.20;99.90;;;10.37;100.00;97105.41;5051588;28;20420;-73
2023/03/19 01:42:18;;;;;;;10.63;3.70;;;11.20;99.90;;;10.69;100.00;97108.72;5051212;28;20394;-72
2023/03/19 01:44:43;;;;;;;6.78;3.13;;;11.40;99.90;;;10.75;100.00;97102.38;5051408;28;20905;-72
2023/03/19 01:47:16;;;;;;;6.28;3.10;;;11.50;99.90;;;10.82;100.00;97097.69;5051334;28;20406;-73
2023/03/19 01:49:46;;;;;;;7.25;3.40;;;11.60;99.90;;;10.96;100.00;97105.94;5051279;28;20896;-73
2023/03/19 01:52:14;;;;;;;9.40;3.28;;;11.70;99.90;;;10.86;100.00;97111.19;5051069;28;20408;-72
2023/03/19 01:54:42;;;;;;;9.77;3.42;;;11.70;99.90;;;10.86;100.00;97106.69;5033242;28;20428;-73
2023/03/19 01:57:12;;;;;;;6.53;3.40;;;11.70;99.90;;;10.90;100.00;97106.94;5033276;28;20981;-72
2023/03/19 01:59:41;;;;;;;8.43;2.95;;;11.70;99.90;;;10.89;100.00;97115.16;5051160;28;20532;-73
2023/03/19 02:02:12;;;;;;;7.95;3.00;;;11.70;99.90;;;10.83;100.00;97130.22;5050709;28;20890;-73
2023/03/19 02:04:42;;;;;;;6.07;3.10;;;11.70;99.90;;;10.93;100.00;97119.69;5051164;28;20398;-72
2023/03/19 02:07:10;;;;;;;5.40;3.10;;;11.70;99.90;;;10.83;100.00;97123.06;5050990;28;20393;-72
2023/03/19 02:09:36;;;;;;;8.17;3.20;;;11.60;99.90;;;10.80;100.00;97125.47;5050884;28;20401;-74
2023/03/19 02:12:04;;;;;;;8.43;3.20;;;11.60;99.90;;;10.88;100.00;97130.25;5050808;28;20484;-72
2023/03/19 02:14:30;;;;;;;6.97;3.60;;;11.70;99.90;;;10.97;100.00;97128.72;5050882;28;20409;-73
2023/03/19 02:16:56;;;;;;;8.52;3.90;;;11.70;99.90;;;10.76;100.00;97135.75;5050754;28;20456;-73
2023/03/19 02:19:30;;;;;;;8.70;4.30;;;11.60;99.90;;;10.47;100.00;97139.84;5032799;28;20466;-73
2023/03/19 02:21:59;;;;;;;8.57;4.40;;;11.30;99.90;;;10.25;100.00;97139.97;5050495;28;20393;-73
2023/03/19 02:24:32;;;;;;;10.18;4.97;;;11.10;99.90;;;10.02;100.00;97142.94;5050751;28;20389;-73
2023/03/19 02:26:59;;;;;;;14.07;6.27;;;10.90;99.90;;;9.81;100.00;97136.69;5050705;28;20484;-72
2023/03/19 02:29:25;;;;;;;19.67;7.60;;;10.80;99.90;;;9.70;100.00;97135.81;5050737;28;20846;-74
2023/03/19 02:31:51;;;;;;;20.63;7.60;;;10.60;99.90;;;9.57;100.00;97127.50;5050432;28;20429;-75
2023/03/19 02:34:38;;;;;;;16.15;7.07;;;10.50;99.90;;;9.47;100.00;97107.06;5049704;28;21268;-74
2023/03/19 02:37:11;;;;;;;17.20;8.98;;;10.40;99.90;;;9.52;100.00;97111.59;5050393;28;20450;-73
2023/03/19 02:39:48;;;;;;;23.02;10.68;;;10.40;99.90;;;9.55;100.00;97114.53;5050574;28;20425;-73
2023/03/19 02:42:18;;;;;;;24.97;10.63;;;10.50;99.90;;;9.60;100.00;97116.44;5050320;28;20397;-74
2023/03/19 02:44:45;;;;;;;22.10;10.40;;;10.60;99.90;;;9.62;100.00;97117.00;5050503;28;20398;-73
2023/03/19 02:47:11;;;;;;;24.83;11.25;;;10.60;99.90;;;9.65;100.00;97121.75;5050427;28;20398;-73
2023/03/19 02:49:37;;;;;;;32.97;15.10;;;10.60;99.90;;;9.79;100.00;97116.84;5050256;28;20405;-73
2023/03/19 02:52:03;;;;;;;27.55;11.77;;;10.60;99.90;;;9.54;100.00;97123.53;5050070;28;20484;-73
2023/03/19 02:54:29;;;;;;;41.55;15.07;;;10.50;99.90;;;9.54;100.00;97112.16;5050411;28;20409;-73
2023/03/19 02:56:55;;;;;;;47.17;15.43;;;10.50;99.90;;;9.53;100.00;97118.50;5050247;28;20429;-73
2023/03/19 02:59:22;;;;;;;18.33;9.93;;;10.50;99.90;;;9.50;100.00;97121.63;5050346;28;20882;-73
2023/03/19 03:01:49;;;;;;;30.33;13.43;;;10.50;99.90;;;9.53;100.00;97119.28;5049932;28;20456;-73
2023/03/19 03:04:15;;;;;;;32.45;12.73;;;10.50;99.90;;;9.56;100.00;97123.25;5050277;28;20918;-73
2023/03/19 03:06:41;;;;;;;21.27;11.18;;;10.50;99.90;;;9.59;100.00;97131.50;5050156;28;20534;-74
2023/03/19 03:09:07;;;;;;;29.75;13.40;;;10.50;99.90;;;9.62;100.00;97130.22;5050293;28;20405;-73
2023/03/19 03:11:33;;;;;;;50.47;17.23;;;10.60;99.90;;;9.69;100.00;97133.44;5049992;28;20408;-74
2023/03/19 03:13:59;;;;;;;36.45;13.52;;;10.60;99.90;;;9.58;100.00;97129.09;5050062;28;20799;-74
2023/03/19 03:16:26;;;;;;;25.67;11.90;;;10.60;99.90;;;9.48;100.00;97129.78;5054162;28;20428;-74
2023/03/19 03:18:52;;;;;;;51.47;16.63;;;10.50;99.90;;;9.47;100.00;97130.06;5054194;28;20802;-73
2023/03/19 03:21:20;;;;;;;27.63;13.00;;;10.50;99.90;;;9.43;100.00;97121.81;5053998;28;20457;-73
2023/03/19 03:23:46;;;;;;;26.80;12.75;;;10.40;99.90;;;9.44;100.00;97123.44;5054185;28;20444;-74
2023/03/19 03:26:12;;;;;;;40.80;16.75;;;10.40;99.90;;;9.49;100.00;97123.47;5054027;28;20398;-74
2023/03/19 03:28:39;;;;;;;39.72;16.83;;;10.50;99.90;;;9.52;100.00;97117.69;5053978;28;20393;-74
2023/03/19 03:31:05;;;;;;;35.88;14.35;;;10.50;99.90;;;9.40;100.00;97122.31;5053725;28;20425;-73
2023/03/19 03:33:32;;;;;;;35.73;14.70;;;10.40;99.90;;;9.39;100.00;97122.59;5053694;28;20413;-74
2023/03/19 03:35:58;;;;;;;34.20;13.90;;;10.40;99.90;;;9.36;100.00;97123.88;5053781;28;20413;-73
2023/03/19 03:38:24;;;;;;;39.47;16.40;;;10.30;99.90;;;9.38;100.00;97129.72;5068146;22;20475;-73
2023/03/19 03:40:53;;;;;;;24.70;12.90;;;10.40;99.90;;;9.31;100.00;97127.28;5053759;28;20488;-74
2023/03/19 03:43:20;;;;;;;34.08;14.73;;;10.30;99.90;;;9.34;100.00;97128.59;5053559;28;20424;-75
2023/03/19 03:45:46;;;;;;;36.78;16.98;;;10.30;99.90;;;9.37;100.00;97127.31;5053667;28;20493;-73
2023/03/19 03:48:12;;;;;;;34.53;16.13;;;10.30;99.90;;;9.35;100.00;97132.03;5053738;28;21176;-74
2023/03/19 03:50:40;;;;;;;40.95;18.40;;;10.30;99.90;;;9.31;100.00;97137.03;5053653;28;20946;-73
2023/03/19 03:53:07;;;;;;;41.70;18.75;;;10.20;99.90;;;9.24;100.00;97142.53;5053432;28;20401;-73
2023/03/19 03:55:34;;;;;;;47.13;20.65;;;10.20;99.90;;;9.26;100.00;97136.97;5053443;28;20405;-74
2023/03/19 03:58:00;;;;;;;51.85;25.33;;;10.20;99.90;;;9.19;100.00;97142.44;5053498;28;20404;-74
2023/03/19 04:00:26;;;;;;;49.92;23.75;;;10.00;99.90;;;9.09;100.00;97139.72;5053390;28;20402;-74
2023/03/19 04:02:52;;;;;;;53.58;23.58;;;9.90;99.90;;;9.04;100.00;97139.63;5033769;28;20410;-73
2023/03/19 04:05:18;;;;;;;48.57;24.13;;;9.90;99.90;;;8.94;100.00;97139.53;5053114;28;20455;-73
2023/03/19 04:07:45;;;;;;;52.25;23.85;;;9.80;99.90;;;8.91;100.00;97153.22;5053053;28;20404;-74
2023/03/19 04:10:12;;;;;;;51.58;24.25;;;9.80;99.90;;;8.86;100.00;97146.03;5053064;28;20929;-73
2023/03/19 04:12:39;;;;;;;44.83;22.80;;;9.70;99.90;;;8.75;100.00;97141.66;5053021;28;20886;-73
2023/03/19 04:15:09;;;;;;;51.00;23.08;;;9.60;99.90;;;8.84;100.00;97147.31;5053146;28;20488;-73
2023/03/19 04:17:35;;;;;;;49.03;21.67;;;9.70;99.90;;;8.83;100.00;97146.53;5053293;28;20451;-73
2023/03/19 04:20:03;;;;;;;51.67;23.20;;;9.70;99.90;;;8.90;100.00;97149.78;5053065;28;20897;-73
2023/03/19 04:22:30;;;;;;;43.83;22.02;;;9.80;99.90;;;8.86;100.00;97153.16;5052841;28;20504;-74
2023/03/19 04:24:57;;;;;;;43.38;21.20;;;9.70;99.90;;;8.85;100.00;97151.56;5054341;28;20421;-74
2023/03/19 04:27:23;;;;;;;46.63;19.70;;;9.70;99.90;;;8.76;100.00;97156.47;5051754;28;20402;-74
2023/03/19 04:29:49;;;;;;;41.80;19.30;;;9.60;99.90;;;8.81;100.00;97147.81;5052931;28;20409;-74
2023/03/19 04:32:15;;;;;;;41.67;19.55;;;9.70;99.90;;;8.83;100.00;97154.44;5052606;28;20938;-74
2023/03/19 04:34:41;;;;;;;42.42;19.33;;;9.70;99.90;;;8.89;100.00;97158.72;5052805;28;20890;-73
2023/03/19 04:37:09;;;;;;;45.20;19.17;;;9.80;99.90;;;8.91;100.00;97154.00;5052617;28;20467;-74
2023/03/19 04:39:35;;;;;;;37.08;17.00;;;9.80;99.90;;;8.80;100.00;97156.75;5052656;28;20402;-73
2023/03/19 04:42:03;;;;;;;30.03;14.97;;;9.70;99.90;;;8.79;100.00;97161.25;5052434;28;20439;-74
2023/03/19 04:44:30;;;;;;;34.75;15.98;;;9.60;99.90;;;8.78;100.00;97164.13;5052474;28;20451;-75
2023/03/19 04:46:56;;;;;;;36.53;16.10;;;9.60;99.90;;;8.83;100.00;97167.63;5052503;28;20394;-74
2023/03/19 04:49:23;;;;;;;35.08;14.80;;;9.70;99.90;;;8.86;100.00;97163.72;5052543;28;20732;-73
2023/03/19 04:51:49;;;;;;;32.38;16.08;;;9.70;99.90;;;8.91;100.00;97172.50;5052168;28;20397;-74
2023/03/19 04:54:15;;;;;;;36.80;15.20;;;9.80;99.90;;;8.88;100.00;97172.16;5052391;28;20408;-74
2023/03/19 04:56:41;;;;;;;29.67;14.20;;;9.70;99.90;;;8.83;100.00;97172.13;5052259;28;20771;-74
2023/03/19 04:59:09;;;;;;;30.38;14.88;;;9.70;99.90;;;8.80;100.00;97168.13;5052294;28;20516;-74
2023/03/19 05:01:35;;;;;;;32.80;14.32;;;9.70;99.90;;;8.80;100.00;97172.59;5051922;28;20401;-75
2023/03/19 05:04:01;;;;;;;28.77;14.23;;;9.70;99.90;;;8.82;100.00;97178.44;5052241;28;20408;-72
2023/03/19 05:06:27;;;;;;;32.45;14.90;;;9.70;99.90;;;8.81;100.00;97177.63;5052058;28;20476;-73
2023/03/19 05:08:53;;;;;;;34.00;15.27;;;9.70;99.90;;;8.76;100.00;97184.69;5052171;28;20455;-73
2023/03/19 05:11:20;;;;;;;30.02;13.65;;;9.60;99.90;;;8.78;100.00;97186.06;5051938;28;20410;-73
2023/03/19 05:13:46;;;;;;;30.38;13.63;;;9.70;99.90;;;8.76;100.00;97184.69;5051821;28;20438;-74
2023/03/19 05:16:13;;;;;;;28.75;14.65;;;9.70;99.90;;;8.75;100.00;97183.09;5051895;28;20417;-74
2023/03/19 05:18:39;;;;;;;31.17;14.45;;;9.60;99.90;;;8.73;100.00;97182.53;5052125;28;20526;-74
2023/03/19 05:21:05;;;;;;;31.77;14.15;;;9.60;99.90;;;8.67;100.00;97184.31;5033940;28;20508;-74
2023/03/19 05:23:31;;;;;;;30.73;14.77;;;9.60;99.90;;;8.63;100.00;97191.13;5051656;28;20437;-74
2023/03/19 05:25:59;;;;;;;27.40;14.13;;;9.50;99.90;;;8.52;100.00;97190.16;5051949;28;20489;-75
2023/03/19 05:28:26;;;;;;;28.33;14.00;;;9.50;99.90;;;8.53;100.00;97194.41;5051751;28;20475;-74
2023/03/19 05:30:52;;;;;;;31.08;13.85;;;9.40;99.90;;;8.47;100.00;97192.75;5051673;28;20435;-74
2023/03/19 05:33:19;;;;;;;28.10;13.87;;;9.40;99.90;;;8.44;100.00;97189.78;5051425;28;20565;-74
2023/03/19 05:35:45;;;;;;;30.80;13.48;;;9.40;99.90;;;8.43;100.00;97196.09;5051473;28;20417;-74
2023/03/19 05:38:11;;;;;;;36.88;15.13;;;9.40;99.90;;;8.42;100.00;97186.59;5050862;28;20929;-75
2023/03/19 05:40:40;;;;;;;28.05;14.15;;;9.30;99.90;;;8.44;100.00;97201.13;5051510;28;20492;-74
2023/03/19 05:43:06;;;;;;;29.58;13.90;;;9.30;99.90;;;8.40;100.00;97194.75;5051214;28;20401;-74
2023/03/19 05:45:32;;;;;;;30.17;14.52;;;9.30;99.90;;;8.39;100.00;97197.63;5051447;28;20397;-73
2023/03/19 05:47:59;;;;;;;29.17;13.73;;;9.20;99.90;;;8.38;100.00;97201.31;5051410;28;20433;-75
2023/03/19 05:50:26;;;;;;;28.50;13.80;;;9.30;99.90;;;8.33;100.00;97209.16;5051336;28;20500;-75
2023/03/19 05:52:52;;;;;;;27.37;13.40;;;9.30;99.90;;;8.33;100.00;97212.59;5051036;28;20481;-75
2023/03/19 05:55:18;;;;;;;26.92;13.15;;;9.30;99.90;;;8.37;100.00;97207.63;5051293;28;20425;-74
2023/03/19 05:57:44;;;;;;;26.92;13.98;;;9.30;99.90;;;8.41;100.00;97214.81;5051200;28;20405;-74
2023/03/19 06:00:12;;;;;;;31.27;14.27;;;9.30;99.90;;;8.39;100.00;97219.53;5051118;28;20401;-74
2023/03/19 06:02:38;;;;;;;27.95;13.45;;;9.30;99.90;;;8.34;100.00;97219.47;5050872;28;20825;-74
2023/03/19 06:05:05;;;;;;;24.98;12.00;;;9.30;99.90;;;8.29;100.00;97221.16;5051270;28;20910;-75
2023/03/19 06:07:32;;;;;;;31.08;13.15;;;9.20;99.90;;;8.32;100.00;97220.72;5051081;28;20405;-75
2023/03/19 06:09:58;;;;;;;25.52;12.35;;;9.20;99.90;;;8.29;100.00;97227.25;5051077;28;20778;-75
2023/03/19 06:12:24;;;;;;;26.52;12.32;;;9.20;99.90;;;8.33;100.00;97230.25;5050772;28;20405;-75
2023/03/19 06:14:50;;;;;;;26.13;12.07;;;9.20;99.90;;;8.33;100.00;97238.97;5050929;28;20872;-75
2023/03/19 06:17:17;;;;;;;26.52;12.40;;;9.20;99.90;;;8.36;100.00;97235.81;5050897;28;20576;-75
2023/03/19 06:19:42;;;;;;;25.85;10.93;;;9.20;99.90;;;8.39;100.00;97235.34;5047238;28;20404;-75
2023/03/19 06:22:09;;;;;;;22.05;10.70;;;9.30;99.90;;;8.41;100.00;97241.19;5060440;28;21148;-74
2023/03/19 06:24:37;;;;;;;20.05;10.82;;;9.30;99.90;;;8.48;100.00;97231.28;5049752;28;20417;-74
2023/03/19 06:27:03;;;;;;;23.65;10.70;;;9.40;99.90;;;8.50;100.00;97234.44;5046466;28;20393;-74
2023/03/19 06:29:29;;;;;;;19.63;10.18;;;9.40;99.90;;;8.55;100.00;97236.38;5049415;28;20496;-74
2023/03/19 06:31:55;;;;;;;25.13;10.80;;;9.40;99.90;;;8.61;100.00;97238.06;5050339;28;20551;-74
2023/03/19 06:34:21;;;;;;;24.85;9.95;;;9.50;99.90;;;8.62;100.00;97236.22;5050751;28;20572;-75
2023/03/19 06:36:47;;;;;;;20.02;9.48;;;9.50;99.90;;;8.65;100.00;97238.34;5050243;28;20433;-75
2023/03/19 06:39:14;;;;;;;23.88;10.48;;;9.50;99.90;;;8.71;100.00;97242.69;5049847;28;20402;-75
2023/03/19 06:41:41;;;;;;;21.85;9.23;;;9.60;99.90;;;8.72;100.00;97233.72;5050084;28;20426;-74
2023/03/19 06:44:07;;;;;;;18.92;9.32;;;9.60;99.90;;;8.76;100.00;97235.63;5050397;28;20400;-74
2023/03/19 06:46:33;;;;;;;20.15;9.00;;;9.70;99.90;;;8.82;100.00;97233.84;5049586;28;20770;-75
2023/03/19 06:48:59;;;;;;;20.45;9.05;;;9.70;99.90;;;8.82;100.00;97233.84;5049781;28;20406;-75
2023/03/19 06:51:26;;;;;;;17.75;8.75;;;9.70;99.90;;;8.83;100.00;97233.63;5050270;28;20401;-73
2023/03/19 06:53:52;;;;;;;16.40;7.85;;;9.70;99.90;;;8.88;100.00;97232.88;5049385;28;20401;-75
2023/03/19 06:56:18;;;;;;;15.33;8.67;;;9.80;99.90;;;8.96;100.00;97239.59;5050060;28;20463;-75
2023/03/19 06:58:45;;;;;;;18.65;8.20;;;9.80;99.90;;;9.03;100.00;97243.63;5050160;28;20479;-74
2023/03/19 07:01:11;;;;;;;19.02;8.70;;;9.90;99.90;;;9.10;100.00;97236.34;5050188;28;20409;-75
2023/03/19 07:03:37;;;;;;;13.40;7.00;;;10.00;99.90;;;9.15;100.00;97239.06;5050041;28;20405;-75
2023/03/19 07:06:04;;;;;;;15.02;7.93;;;10.00;99.90;;;9.22;100.00;97238.88;5050256;28;20492;-74
2023/03/19 07:08:30;;;;;;;17.00;8.10;;;10.10;99.90;;;9.28;100.00;97240.53;5050241;28;20507;-74
2023/03/19 07:10:56;;;;;;;18.83;7.90;;;10.20;99.90;;;9.28;100.00;97243.97;5050199;28;20548;-74
2023/03/19 07:13:22;;;;;;;19.73;7.70;;;10.20;99.90;;;9.26;100.00;97247.88;5050046;28;20970;-74
2023/03/19 07:15:49;;;;;;;13.33;7.07;;;10.00;99.90;;;9.20;100.00;97241.75;5050024;28;20444;-73
2023/03/19 07:18:15;;;;;;;13.90;6.65;;;10.00;99.90;;;9.09;100.00;97239.25;5049859;28;20903;-73
2023/03/19 07:20:41;;;;;;;18.53;7.40;;;9.90;99.90;;;9.06;100.00;97243.16;5049877;28;20444;-73
2023/03/19 07:23:07;;;;;;;17.50;6.60;;;9.90;99.90;;;9.25;100.00;97249.72;5048418;28;20409;-75
2023/03/19 07:25:33;;;;;;;16.05;6.50;;;10.00;99.90;;;9.02;100.00;97249.97;5048927;28;20397;-74
2023/03/19 07:27:59;;;;;;;12.18;6.03;;;9.90;99.90;;;9.09;100.00;97250.59;5049250;28;20492;-74
2023/03/19 07:30:25;;;;;;;17.23;6.17;;;9.90;99.90;;;9.08;100.00;97250.84;5049605;28;20493;-74
2023/03/19 07:32:53;;;;;;;12.30;5.57;;;9.90;99.90;;;9.10;100.00;97257.47;5049325;28;20771;-75
2023/03/19 07:35:20;;;;;;;13.00;5.60;;;9.80;99.90;;;9.18;100.00;97246.47;5047202;28;20467;-74
2023/03/19 07:37:46;;;;;;;12.00;5.23;;;9.90;99.90;;;9.21;100.00;97251.28;5031447;28;20991;-73
2023/03/19 07:40:12;;;;;;;10.63;5.07;;;10.00;99.90;;;9.22;100.00;97255.53;5049230;28;20409;-75
2023/03/19 07:42:38;;;;;;;12.75;5.57;;;10.00;99.90;;;9.45;100.00;97258.97;5049226;28;20405;-75
2023/03/19 07:45:06;;;;;;;11.03;4.90;;;10.20;99.90;;;9.57;100.00;97257.78;5048782;28;20910;-76
2023/03/19 07:47:32;;;;;;;10.67;4.63;;;10.30;99.90;;;9.44;100.00;97260.00;5049086;28;20474;-76
2023/03/19 07:49:59;;;;;;;9.90;4.05;;;10.20;99.90;;;9.67;100.00;97259.75;5049492;28;20404;-73
2023/03/19 07:52:25;;;;;;;8.77;4.40;;;10.40;99.90;;;9.69;100.00;97266.38;5047292;28;20421;-75
2023/03/19 07:54:52;;;;;;;12.10;4.22;;;10.50;99.90;;;9.64;100.00;97268.97;5047608;28;20474;-75
2023/03/19 07:57:18;;;;;;;6.95;4.00;;;10.40;99.90;;;9.61;100.00;97269.47;5055026;28;20881;-75
2023/03/19 07:59:44;;;;;;;10.10;3.90;;;10.40;99.90;;;9.66;100.00;97266.88;5051029;28;20498;-75
2023/03/19 08:02:11;;;;;;;6.50;3.88;;;10.50;99.90;;;9.66;100.00;97266.06;5068477;28;20400;-75
2023/03/19 08:04:37;;;;;;;6.47;3.45;;;10.50;99.90;;;9.92;100.00;97259.97;5050067;28;20448;-75
2023/03/19 08:07:05;;;;;;;12.85;4.40;;;10.60;99.90;;;10.11;100.00;97255.16;5051746;28;20429;-74
2023/03/19 08:09:31;;;;;;;5.85;3.63;;;10.90;99.90;;;10.17;100.00;97253.34;5054925;28;20947;-75
2023/03/19 08:11:57;;;;;;;7.93;4.07;;;11.00;99.90;;;10.21;100.00;97270.34;5058828;28;20401;-75
2023/03/19 08:14:24;;;;;;;9.23;3.80;;;11.00;99.90;;;10.26;100.00;97260.59;5051438;28;20431;-74
2023/03/19 08:16:49;;;;;;;7.93;3.75;;;11.00;99.90;;;10.14;100.00;97269.72;5058016;28;20490;-75
2023/03/19 08:19:16;;;;;;;6.10;3.53;;;10.90;99.90;;;10.25;100.00;97264.31;5045433;28;20539;-75
2023/03/19 08:21:42;;;;;;;7.33;3.63;;;11.00;99.90;;;10.36;100.00;97262.56;5053362;28;20405;-75
2023/03/19 08:24:09;;;;;;;8.25;4.05;;;11.10;99.90;;;10.44;100.00;97260.25;5051200;28;20433;-76
2023/03/19 08:26:36;;;;;;;7.33;3.17;;;11.20;99.90;;;10.56;100.00;97265.34;5037075;28;20481;-76
2023/03/19 08:29:03;;;;;;;4.72;3.20;;;11.30;99.90;;;10.53;100.00;97259.75;5051894;28;20539;-76
2023/03/19 08:31:29;;;;;;;7.78;3.35;;;11.30;99.90;;;10.65;100.00;97263.03;5051483;28;20397;-77
2023/03/19 08:33:55;;;;;;;5.07;3.20;;;11.40;99.90;;;10.83;100.00;97263.41;5052529;28;20888;-77
2023/03/19 08:36:21;;;;;;;6.13;3.10;;;11.50;99.90;;;10.77;100.00;97266.28;5060668;28;20524;-76
2023/03/19 08:38:47;;;;;;;7.53;3.38;;;11.50;99.90;;;10.81;100.00;97262.88;5067262;28;20890;-75
2023/03/19 08:41:14;;;;;;;9.10;3.67;;;11.50;99.90;;;10.89;100.00;97266.91;5060758;28;20407;-75
2023/03/19 08:43:40;;;;;;;6.88;3.10;;;11.60;99.90;;;11.00;100.00;97259.81;5059850;28;20948;-76
2023/03/19 08:46:06;;;;;;;5.70;3.40;;;11.70;99.90;;;11.10;100.00;97265.97;5061509;28;20416;-75
2023/03/19 08:48:32;;;;;;;6.77;3.30;;;11.80;99.90;;;10.98;100.00;97259.25;5052750;28;20402;-75
2023/03/19 08:51:01;;;;;;;6.65;3.40;;;11.70;99.90;;;11.11;100.00;97269.41;5055568;28;20401;-75
2023/03/19 08:53:28;;;;;;;7.50;3.25;;;11.80;99.90;;;11.00;100.00;97273.84;5051726;28;20904;-75
2023/03/19 08:55:56;;;;;;;8.02;3.20;;;11.80;99.90;;;10.76;100.00;97272.63;5058341;28;20775;-75
2023/03/19 08:58:24;;;;;;;6.18;3.15;;;11.60;99.90;;;10.83;100.00;97278.50;5051724;28;20405;-74
2023/03/19 09:00:50;;;;;;;4.53;3.15;;;11.60;99.90;;;11.04;100.00;97276.78;5058693;28;20426;-75
2023/03/19 09:03:17;;;;;;;8.18;3.78;;;11.80;99.90;;;11.20;100.00;97287.19;5058896;28;20396;-74
2023/03/19 09:05:43;;;;;;;7.85;3.63;;;11.90;99.90;;;11.41;100.00;97290.75;5060419;28;20401;-73
2023/03/19 09:08:10;;;;;;;5.05;3.03;;;12.10;99.90;;;11.57;100.00;97287.13;5053504;28;20401;-73
2023/03/19 09:10:36;;;;;;;5.88;3.17;;;12.30;99.90;;;11.52;100.00;97292.38;5051365;28;20429;-74
2023/03/19 09:13:02;;;;;;;4.95;2.92;;;12.30;99.90;;;11.55;100.00;97291.09;5051053;28;20882;-73
2023/03/19 09:15:29;;;;;;;7.13;2.88;;;12.30;99.90;;;11.71;100.00;97284.00;5051937;28;20424;-73
2023/03/19 09:17:55;;;;;;;6.57;3.00;;;12.40;99.90;;;11.71;100.00;97284.00;5047137;28;20409;-72
2023/03/19 09:20:21;;;;;;;7.20;3.50;;;12.40;99.90;;;11.88;100.00;97284.56;5050690;28;20986;-72
2023/03/19 09:22:47;;;;;;;5.47;2.70;;;12.60;99.90;;;12.01;100.00;97284.09;5046113;28;20496;-73
2023/03/19 09:25:13;;;;;;;7.05;2.63;;;12.70;99.90;;;12.16;100.00;97288.63;5049590;28;20485;-72
2023/03/19 09:27:39;;;;;;;6.40;3.05;;;12.80;99.90;;;12.27;100.00;97284.91;5051503;28;20410;-73
2023/03/19 09:30:08;;;;;;;5.97;3.00;;;13.10;99.90;;;12.28;100.00;97283.88;5051605;28;20504;-73
2023/03/19 09:32:36;;;;;;;4.50;2.60;;;13.10;99.90;;;12.26;100.00;97281.47;5051296;28;20890;-73
2023/03/19 09:35:02;;;;;;;4.80;2.60;;;13.00;99.90;;;12.36;100.00;97288.66;5051418;28;20421;-73
2023/03/19 09:37:28;;;;;;;7.57;2.83;;;13.20;99.90;;;12.53;100.00;97281.22;5067186;22;20429;-81
2023/03/19 09:39:54;;;;;;;4.03;2.80;;;13.20;99.90;;;12.71;100.00;97275.38;5362852;22;20429;-81
2023/03/19 09:42:43;;;;;;;5.40;2.80;;;13.50;99.90;;;12.60;100.00;97273.00;5062824;28;20416;-82
2023/03/19 09:45:15;;;;;;;6.32;2.72;;;13.40;99.90;;;12.83;100.00;97261.03;5058629;28;20433;-80
2023/03/19 09:47:44;;;;;;;6.63;2.35;;;13.50;99.90;;;12.96;100.00;97250.63;5185306;22;20418;-80
2023/03/19 09:50:13;;;;;;;5.72;2.63;;;13.70;99.90;;;13.27;100.00;97256.69;6188679;22;20436;-80
2023/03/19 09:52:44;;;;;;;5.88;2.63;;;13.90;99.90;;;13.68;100.00;97256.53;5042189;28;20394;-78
2023/03/19 09:55:26;;;;;;;4.05;2.47;;;14.20;99.90;;;13.98;100.00;97248.41;5031417;28;20916;-76
2023/03/19 09:57:55;;;;;;;7.57;2.57;;;14.60;99.90;;;13.98;100.00;97253.72;5031318;28;20406;-76
2023/03/19 10:00:26;;;;;;;4.85;2.40;;;14.70;99.90;;;14.10;100.00;97250.69;5031625;28;20442;-77
2023/03/19 10:03:03;;;;;;;4.35;2.15;;;14.80;99.90;;;14.20;100.00;97247.97;5025345;28;20472;-76
2023/03/19 10:05:44;;;;;;;4.80;2.23;;;14.90;99.90;;;14.51;100.00;97237.94;5024842;28;20483;-77
2023/03/19 10:08:39;;;;;;;5.63;2.15;;;15.10;99.90;;;15.03;100.00;97248.63;5032779;28;20407;-77
2023/03/19 10:11:25;;;;;;;3.22;2.10;;;15.60;99.90;;;15.42;100.00;97244.97;5030936;28;20797;-76
2023/03/19 10:14:05;;;;;;;5.78;1.90;;;16.10;99.90;;;15.92;100.00;97237.44;5025273;28;20414;-76